createdAt,value
2019-01-19T00:01:55.001Z,-3.10
2019-01-19T00:04:54.463Z,-3.10
2019-01-19T00:07:56.745Z,-3.20
2019-01-19T00:10:53.729Z,-3.30
2019-01-19T00:13:56.306Z,-3.30
2019-01-19T00:17:05.555Z,-3.30
2019-01-19T00:20:30.141Z,-3.20
2019-01-19T00:23:39.296Z,-3.40
2019-01-19T00:26:21.073Z,-3.40
2019-01-19T00:29:02.402Z,-3.30
2019-01-19T00:31:36.113Z,-3.20
2019-01-19T00:34:34.207Z,-3.20
2019-01-19T00:37:08.831Z,-3.20
2019-01-19T00:40:16.413Z,-3.30
2019-01-19T00:43:29.169Z,-3.40
2019-01-19T00:47:02.984Z,-3.50
2019-01-19T00:50:01.637Z,-3.50
2019-01-19T00:53:01.185Z,-3.50
2019-01-19T00:56:17.542Z,-3.50
2019-01-19T00:59:15.137Z,-3.40
2019-01-19T01:02:09.080Z,-3.40
2019-01-19T01:04:58.628Z,-3.50
2019-01-19T01:08:11.123Z,-3.60
2019-01-19T01:10:46.708Z,-3.60
2019-01-19T01:13:42.629Z,-3.60
2019-01-19T01:17:05.525Z,-3.60
2019-01-19T01:19:57.614Z,-3.70
2019-01-19T01:22:59.366Z,-3.60
2019-01-19T01:25:34.009Z,-3.50
2019-01-19T01:28:41.802Z,-3.50
2019-01-19T01:31:28.940Z,-3.40
2019-01-19T01:34:40.472Z,-3.40
2019-01-19T01:37:28.802Z,-3.40
2019-01-19T01:40:25.222Z,-3.40
2019-01-19T01:43:26.636Z,-3.40
2019-01-19T01:46:19.872Z,-3.40
2019-01-19T01:49:29.726Z,-3.40
2019-01-19T01:52:29.465Z,-3.40
2019-01-19T01:55:20.779Z,-3.40
2019-01-19T01:58:12.241Z,-3.40
2019-01-19T02:01:16.741Z,-3.40
2019-01-19T02:04:32.102Z,-3.40
2019-01-19T02:07:21.434Z,-3.60
2019-01-19T02:10:20.611Z,-3.60
2019-01-19T02:13:21.600Z,-3.60
2019-01-19T02:16:22.604Z,-3.60
2019-01-19T02:19:15.264Z,-3.70
2019-01-19T02:22:44.220Z,-3.60
2019-01-19T02:25:50.493Z,-3.60
2019-01-19T02:28:49.707Z,-3.50
2019-01-19T02:32:07.734Z,-3.50
2019-01-19T02:35:15.145Z,-3.50
2019-01-19T02:38:33.246Z,-3.60
2019-01-19T02:41:39.301Z,-3.60
2019-01-19T02:44:37.776Z,-3.50
2019-01-19T02:47:37.841Z,-3.60
2019-01-19T02:50:30.413Z,-3.70
2019-01-19T02:53:31.672Z,-3.60
2019-01-19T02:56:30.869Z,-3.60
2019-01-19T02:59:15.617Z,-3.60
2019-01-19T03:02:09.600Z,-3.50
2019-01-19T03:05:13.815Z,-3.60
2019-01-19T03:07:56.184Z,-3.50
2019-01-19T03:11:05.265Z,-3.60
2019-01-19T03:14:10.343Z,-3.60
2019-01-19T03:17:04.446Z,-3.60
2019-01-19T03:20:11.073Z,-3.70
2019-01-19T03:23:01.110Z,-3.70
2019-01-19T03:26:07.393Z,-3.80
2019-01-19T03:29:04.141Z,-3.90
2019-01-19T03:32:11.686Z,-3.90
2019-01-19T03:35:19.637Z,-3.90
2019-01-19T03:38:18.717Z,-3.90
2019-01-19T03:41:07.601Z,-4.00
2019-01-19T03:44:11.752Z,-4.00
2019-01-19T03:47:20.326Z,-4.00
2019-01-19T03:50:25.481Z,-3.80
2019-01-19T03:53:11.801Z,-3.60
2019-01-19T03:56:39.137Z,-3.60
2019-01-19T03:59:57.786Z,-3.60
2019-01-19T04:03:07.794Z,-3.50
2019-01-19T04:06:03.485Z,-3.50
2019-01-19T04:09:17.718Z,-3.40
2019-01-19T04:12:39.180Z,-3.30
2019-01-19T04:16:06.337Z,-3.20
2019-01-19T04:18:42.902Z,-3.00
2019-01-19T04:21:42.819Z,-3.00
2019-01-19T04:24:14.622Z,-3.00
2019-01-19T04:26:44.360Z,-3.10
2019-01-19T04:29:13.764Z,-2.90
2019-01-19T04:31:41.029Z,-2.90
2019-01-19T04:34:08.566Z,-2.90
2019-01-19T04:36:36.320Z,-3.10
2019-01-19T04:39:08.133Z,-3.00
2019-01-19T04:41:35.397Z,-3.00
2019-01-19T04:44:04.213Z,-3.10
2019-01-19T04:46:31.961Z,-3.10
2019-01-19T04:48:59.343Z,-3.10
2019-01-19T04:51:27.026Z,-3.10
2019-01-19T04:53:54.580Z,-3.10
2019-01-19T04:56:21.829Z,-3.10
2019-01-19T04:58:49.066Z,-3.10
2019-01-19T05:01:16.331Z,-3.10
2019-01-19T05:03:43.691Z,-3.10
2019-01-19T05:06:12.388Z,-3.10
2019-01-19T05:08:40.085Z,-3.10
2019-01-19T05:11:07.720Z,-3.10
2019-01-19T05:13:35.050Z,-3.10
2019-01-19T05:16:02.342Z,-3.20
2019-01-19T05:18:29.572Z,-3.30
2019-01-19T05:20:57.325Z,-3.30
2019-01-19T05:23:24.854Z,-3.30
2019-01-19T05:25:52.113Z,-3.30
2019-01-19T05:28:19.621Z,-3.20
2019-01-19T05:30:47.356Z,-3.10
2019-01-19T05:33:14.727Z,-3.10
2019-01-19T05:35:42.573Z,-3.10
2019-01-19T05:38:09.833Z,-3.00
2019-01-19T05:40:37.098Z,-3.00
2019-01-19T05:43:04.568Z,-3.00
2019-01-19T05:45:31.886Z,-3.10
2019-01-19T05:47:59.553Z,-3.00
2019-01-19T05:50:26.787Z,-3.00
2019-01-19T05:52:54.154Z,-3.00
2019-01-19T05:55:21.736Z,-3.00
2019-01-19T05:57:48.981Z,-3.00
2019-01-19T06:00:29.670Z,-3.00
2019-01-19T06:02:57.036Z,-2.90
2019-01-19T06:05:24.209Z,-3.00
2019-01-19T06:07:51.740Z,-3.10
2019-01-19T06:10:19.283Z,-3.00
2019-01-19T06:12:46.649Z,-3.10
2019-01-19T06:15:14.016Z,-3.00
2019-01-19T06:17:41.724Z,-3.00
2019-01-19T06:20:12.172Z,-3.10
2019-01-19T06:22:39.709Z,-3.10
2019-01-19T06:25:07.846Z,-3.00
2019-01-19T06:27:35.128Z,-3.00
2019-01-19T06:30:05.938Z,-2.90
2019-01-19T06:32:33.197Z,-2.90
2019-01-19T06:35:00.446Z,-2.90
2019-01-19T06:37:28.034Z,-3.00
2019-01-19T06:39:55.276Z,-3.00
2019-01-19T06:42:22.530Z,-3.00
2019-01-19T06:44:49.997Z,-3.10
2019-01-19T06:47:17.289Z,-3.10
2019-01-19T06:49:44.522Z,-3.00
2019-01-19T06:52:11.795Z,-3.00
2019-01-19T06:54:39.028Z,-3.10
2019-01-19T06:57:07.172Z,-3.10
2019-01-19T06:59:34.417Z,-3.10
2019-01-19T07:02:01.686Z,-3.10
2019-01-19T07:04:28.944Z,-3.10
2019-01-19T07:07:02.511Z,-3.20
2019-01-19T07:09:25.682Z,-3.10
2019-01-19T07:11:52.972Z,-3.20
2019-01-19T07:14:20.106Z,-3.30
2019-01-19T07:16:47.381Z,-3.30
2019-01-19T07:19:14.917Z,-3.30
2019-01-19T07:21:42.083Z,-3.30
2019-01-19T07:24:09.325Z,-3.30
2019-01-19T07:26:36.584Z,-3.10
2019-01-19T07:29:03.818Z,-3.20
2019-01-19T07:31:31.085Z,-3.20
2019-01-19T07:33:59.040Z,-3.20
2019-01-19T07:36:26.685Z,-3.30
2019-01-19T07:38:53.921Z,-3.30
2019-01-19T07:41:21.797Z,-3.30
2019-01-19T07:43:49.067Z,-3.20
2019-01-19T07:46:17.034Z,-3.10
2019-01-19T07:48:44.293Z,-3.10
2019-01-19T07:51:11.616Z,-3.10
2019-01-19T07:53:39.186Z,-3.10
2019-01-19T07:56:07.053Z,-2.90
2019-01-19T07:58:34.713Z,-3.00
2019-01-19T08:01:01.960Z,-2.90
2019-01-19T08:03:29.521Z,-2.90
2019-01-19T08:05:59.488Z,-2.90
2019-01-19T08:08:27.129Z,-2.80
2019-01-19T08:10:54.641Z,-2.70
2019-01-19T08:13:21.899Z,-2.60
2019-01-19T08:15:49.472Z,-2.60
2019-01-19T08:18:17.542Z,-2.50
2019-01-19T08:20:45.307Z,-2.50
2019-01-19T08:23:12.562Z,-2.40
2019-01-19T08:25:40.121Z,-2.40
2019-01-19T08:28:07.413Z,-2.20
2019-01-19T08:30:34.729Z,-1.90
2019-01-19T08:33:02.483Z,-2.10
2019-01-19T08:35:29.728Z,-1.90
2019-01-19T08:37:56.984Z,-1.70
2019-01-19T08:40:29.527Z,-1.30
2019-01-19T08:43:22.717Z,-1.20
2019-01-19T08:45:50.286Z,-1.20
2019-01-19T08:48:18.145Z,-1.30
2019-01-19T08:50:45.477Z,-1.30
2019-01-19T08:53:12.797Z,-1.50
2019-01-19T08:55:40.442Z,-1.60
2019-01-19T08:58:07.725Z,-1.70
2019-01-19T09:00:34.957Z,-1.70
2019-01-19T09:03:02.581Z,-1.70
2019-01-19T09:05:29.817Z,-1.70
2019-01-19T09:07:57.134Z,-1.70
2019-01-19T09:10:24.745Z,-1.60
2019-01-19T09:12:52.011Z,-1.40
2019-01-19T09:15:19.280Z,-1.30
2019-01-19T09:17:46.534Z,-1.30
2019-01-19T09:20:14.253Z,-1.20
2019-01-19T09:22:41.505Z,-1.20
2019-01-19T09:25:10.579Z,-1.20
2019-01-19T09:27:38.169Z,-1.10
2019-01-19T09:30:09.192Z,-0.90
2019-01-19T09:32:36.629Z,-0.90
2019-01-19T09:35:04.244Z,-0.70
2019-01-19T09:37:31.784Z,-0.60
2019-01-19T09:39:59.052Z,-0.50
2019-01-19T09:42:26.612Z,-0.20
2019-01-19T09:44:53.884Z,0.20
2019-01-19T09:47:21.150Z,0.30
2019-01-19T09:49:48.414Z,0.40
2019-01-19T09:52:21.137Z,0.50
2019-01-19T09:54:45.253Z,0.50
2019-01-19T09:57:12.512Z,1.30
2019-01-19T09:59:40.128Z,3.00
2019-01-19T10:02:07.787Z,4.30
2019-01-19T10:04:35.413Z,4.70
2019-01-19T10:07:02.663Z,4.70
2019-01-19T10:09:29.929Z,4.70
2019-01-19T10:11:57.168Z,4.80
2019-01-19T10:14:25.184Z,5.50
2019-01-19T10:16:52.829Z,5.00
2019-01-19T10:19:20.393Z,5.50
2019-01-19T10:21:47.818Z,5.00
2019-01-19T10:24:15.402Z,4.70
2019-01-19T10:26:42.965Z,5.10
2019-01-19T10:29:10.626Z,5.50
2019-01-19T10:31:37.950Z,4.70
2019-01-19T10:34:05.945Z,4.30
2019-01-19T10:36:33.510Z,4.40
2019-01-19T10:39:01.269Z,5.10
2019-01-19T10:41:28.829Z,5.00
2019-01-19T10:43:56.410Z,5.20
2019-01-19T10:46:24.157Z,5.50
2019-01-19T10:48:51.714Z,5.10
2019-01-19T10:51:18.940Z,5.60
2019-01-19T10:53:46.177Z,5.90
2019-01-19T10:56:13.773Z,7.30
2019-01-19T10:58:41.018Z,6.50
2019-01-19T11:01:08.383Z,5.90
2019-01-19T11:03:35.659Z,5.70
2019-01-19T11:06:02.909Z,6.00
2019-01-19T11:08:30.150Z,6.10
2019-01-19T11:10:57.725Z,5.50
2019-01-19T11:13:25.059Z,4.90
2019-01-19T11:15:52.453Z,4.80
2019-01-19T11:18:19.693Z,5.20
2019-01-19T11:20:47.067Z,5.60
2019-01-19T11:23:14.680Z,6.10
2019-01-19T11:25:41.961Z,5.70
2019-01-19T11:28:09.482Z,5.60
2019-01-19T11:30:36.751Z,6.00
2019-01-19T11:33:03.998Z,7.20
2019-01-19T11:35:31.748Z,6.60
2019-01-19T11:37:59.309Z,6.80
2019-01-19T11:40:32.073Z,5.70
2019-01-19T11:42:59.333Z,4.80
2019-01-19T11:45:26.898Z,4.30
2019-01-19T11:47:54.134Z,4.80
2019-01-19T11:50:22.705Z,4.40
2019-01-19T11:52:50.393Z,4.00
2019-01-19T11:55:18.469Z,3.70
2019-01-19T11:57:46.705Z,3.70
2019-01-19T12:00:16.349Z,3.20
2019-01-19T12:02:43.584Z,2.30
2019-01-19T12:05:11.125Z,2.10
2019-01-19T12:07:38.357Z,2.10
2019-01-19T12:10:08.517Z,2.00
2019-01-19T12:12:36.093Z,1.60
2019-01-19T12:15:05.045Z,1.60
2019-01-19T12:17:32.640Z,1.60
2019-01-19T12:19:59.920Z,1.50
2019-01-19T12:22:27.162Z,1.60
2019-01-19T12:24:54.392Z,1.50
2019-01-19T12:27:21.690Z,1.60
2019-01-19T12:29:48.922Z,1.80
2019-01-19T12:32:16.201Z,2.10
2019-01-19T12:34:43.436Z,2.00
2019-01-19T12:37:10.629Z,1.80
2019-01-19T12:39:37.869Z,1.60
2019-01-19T12:42:05.977Z,1.50
2019-01-19T12:44:33.208Z,1.60
2019-01-19T12:47:00.481Z,1.60
2019-01-19T12:49:27.718Z,1.70
2019-01-19T12:51:55.001Z,1.70
2019-01-19T12:54:22.237Z,1.60
2019-01-19T12:56:49.598Z,1.60
2019-01-19T12:59:16.937Z,1.70
2019-01-19T13:01:44.261Z,1.90
2019-01-19T13:04:11.505Z,2.00
2019-01-19T13:06:43.614Z,2.00
2019-01-19T13:09:23.669Z,2.00
2019-01-19T13:12:11.511Z,1.90
2019-01-19T13:14:45.470Z,1.80
2019-01-19T13:17:46.968Z,1.50
2019-01-19T13:20:42.589Z,1.40
2019-01-19T13:23:45.512Z,1.50
2019-01-19T13:26:51.048Z,1.50
2019-01-19T13:29:51.805Z,1.30
2019-01-19T13:32:41.119Z,1.30
2019-01-19T13:35:50.525Z,1.30
2019-01-19T13:39:07.729Z,1.30
2019-01-19T13:42:04.933Z,1.40
2019-01-19T13:45:14.544Z,1.30
2019-01-19T13:48:19.640Z,1.40
2019-01-19T13:51:12.464Z,1.40
2019-01-19T13:54:05.733Z,1.50
2019-01-19T13:57:33.333Z,1.60
2019-01-19T14:00:26.553Z,1.50
2019-01-19T14:03:33.052Z,1.40
2019-01-19T14:06:17.088Z,2.00
2019-01-19T14:09:22.137Z,1.50
2019-01-19T14:12:14.121Z,1.50
2019-01-19T14:15:35.413Z,1.30
2019-01-19T14:18:58.238Z,1.30
2019-01-19T14:21:52.924Z,1.30
2019-01-19T14:24:32.423Z,1.40
2019-01-19T14:27:32.888Z,1.30
2019-01-19T14:30:36.853Z,1.30
2019-01-19T14:33:30.397Z,1.40
2019-01-19T14:36:21.175Z,1.60
2019-01-19T14:39:13.883Z,1.30
2019-01-19T14:42:23.053Z,1.30
2019-01-19T14:45:23.265Z,1.40
2019-01-19T14:48:23.944Z,1.50
2019-01-19T14:51:25.570Z,1.40
2019-01-19T14:54:32.935Z,1.40
2019-01-19T14:57:39.245Z,1.10
2019-01-19T15:00:42.288Z,1.10
2019-01-19T15:03:26.329Z,1.00
2019-01-19T15:06:47.770Z,1.00
2019-01-19T15:09:40.163Z,0.90
2019-01-19T15:12:56.632Z,0.60
2019-01-19T15:15:56.961Z,0.40
2019-01-19T15:19:01.042Z,0.10
2019-01-19T15:22:00.897Z,0.10
2019-01-19T15:24:59.782Z,0.10
2019-01-19T15:28:24.017Z,0.00
2019-01-19T15:31:06.176Z,0.00
2019-01-19T15:34:07.385Z,0.00
2019-01-19T15:37:30.693Z,0.00
2019-01-19T15:40:42.878Z,-0.10
2019-01-19T15:44:00.865Z,-0.20
2019-01-19T15:47:07.717Z,-0.30
2019-01-19T15:50:13.294Z,-0.50
2019-01-19T15:53:04.797Z,-0.60
2019-01-19T15:56:23.443Z,-0.80
2019-01-19T16:00:02.914Z,-1.00
2019-01-19T16:02:58.624Z,-1.10
2019-01-19T16:06:19.185Z,-1.30
2019-01-19T16:09:18.151Z,-1.40
2019-01-19T16:12:10.677Z,-1.50
2019-01-19T16:15:12.181Z,-1.60
2019-01-19T16:17:53.080Z,-1.70
2019-01-19T16:21:01.594Z,-1.70
2019-01-19T16:23:58.524Z,-1.80
2019-01-19T16:27:08.291Z,-1.80
2019-01-19T16:30:12.769Z,-1.80
2019-01-19T16:32:53.184Z,-1.70
2019-01-19T16:36:08.172Z,-1.80
2019-01-19T16:39:15.160Z,-1.90
2019-01-19T16:42:16.600Z,-2.00
2019-01-19T16:45:25.928Z,-2.00
2019-01-19T16:48:53.069Z,-2.10
2019-01-19T16:51:55.105Z,-2.20
2019-01-19T16:55:08.929Z,-2.30
2019-01-19T16:58:18.334Z,-2.30
2019-01-19T17:01:26.233Z,-2.30
2019-01-19T17:04:48.454Z,-2.30
2019-01-19T17:08:02.728Z,-2.30
2019-01-19T17:10:52.505Z,-2.30
2019-01-19T17:13:36.249Z,-2.40
2019-01-19T17:16:31.445Z,-2.40
2019-01-19T17:19:53.286Z,-2.50
2019-01-19T17:22:49.361Z,-2.60
2019-01-19T17:26:04.813Z,-2.60
2019-01-19T17:29:13.910Z,-2.70
2019-01-19T17:31:57.932Z,-2.80
2019-01-19T17:35:01.079Z,-2.80
2019-01-19T17:37:39.333Z,-2.80
2019-01-19T17:41:00.593Z,-2.90
2019-01-19T17:43:39.920Z,-2.90
2019-01-19T17:46:20.793Z,-3.00
2019-01-19T17:49:20.108Z,-3.00
2019-01-19T17:52:24.997Z,-3.00
2019-01-19T17:55:18.615Z,-3.10
2019-01-19T17:58:22.565Z,-3.00
2019-01-19T18:01:25.094Z,-3.10
2019-01-19T18:04:31.668Z,-3.00
2019-01-19T18:07:52.886Z,-3.10
2019-01-19T18:11:08.104Z,-3.10
2019-01-19T18:14:16.172Z,-3.20
2019-01-19T18:17:40.601Z,-3.10
2019-01-19T18:20:59.023Z,-3.00
2019-01-19T18:24:02.510Z,-3.00
2019-01-19T18:26:51.292Z,-3.20
2019-01-19T18:29:47.923Z,-3.10
2019-01-19T18:33:00.988Z,-3.10
2019-01-19T18:35:55.181Z,-3.20
2019-01-19T18:38:53.518Z,-3.20
2019-01-19T18:42:03.302Z,-3.30
2019-01-19T18:45:20.992Z,-3.20
2019-01-19T18:48:00.573Z,-3.20
2019-01-19T18:51:11.641Z,-3.30
2019-01-19T18:54:22.043Z,-3.30
2019-01-19T18:57:32.588Z,-3.50
2019-01-19T19:00:30.097Z,-3.50
2019-01-19T19:03:37.873Z,-3.40
2019-01-19T19:06:44.586Z,-3.50
2019-01-19T19:10:11.827Z,-3.40
2019-01-19T19:12:58.301Z,-3.60
2019-01-19T19:16:03.553Z,-3.60
2019-01-19T19:18:51.120Z,-3.50
2019-01-19T19:21:54.418Z,-3.60
2019-01-19T19:24:44.625Z,-3.50
2019-01-19T19:27:52.719Z,-3.50
2019-01-19T19:30:36.597Z,-3.50
2019-01-19T19:33:32.783Z,-3.60
2019-01-19T19:36:32.377Z,-3.60
2019-01-19T19:39:12.092Z,-3.80
2019-01-19T19:42:39.793Z,-3.90
2019-01-19T19:46:01.065Z,-3.90
2019-01-19T19:49:06.173Z,-3.80
2019-01-19T19:51:59.821Z,-3.80
2019-01-19T19:54:28.424Z,-3.70
2019-01-19T19:56:56.533Z,-3.70
2019-01-19T20:02:21.448Z,-3.80
2019-01-19T20:04:48.667Z,-3.80
2019-01-19T20:07:16.221Z,-3.90
2019-01-19T20:09:43.448Z,-4.00
2019-01-19T20:12:10.728Z,-4.00
2019-01-19T20:14:38.392Z,-4.00
2019-01-19T20:17:06.115Z,-3.90
2019-01-19T20:19:33.396Z,-3.90
2019-01-19T20:22:00.665Z,-3.90
2019-01-19T20:24:28.211Z,-4.10
2019-01-19T20:26:55.799Z,-4.20
2019-01-19T20:29:23.036Z,-4.30
2019-01-19T20:31:50.457Z,-4.30
2019-01-19T20:34:17.741Z,-4.30
2019-01-19T20:36:45.020Z,-4.40
2019-01-19T20:39:12.552Z,-4.40
2019-01-19T20:41:39.827Z,-4.50
2019-01-19T20:44:07.052Z,-4.50
2019-01-19T20:46:34.287Z,-4.60
2019-01-19T20:49:01.579Z,-4.60
2019-01-19T20:51:29.110Z,-4.60
2019-01-19T20:53:56.572Z,-4.50
2019-01-19T20:56:23.805Z,-4.40
2019-01-19T20:58:51.103Z,-4.50
2019-01-19T21:01:18.637Z,-4.40
2019-01-19T21:03:46.025Z,-4.40
2019-01-19T21:06:13.253Z,-4.30
2019-01-19T21:08:40.873Z,-4.30
2019-01-19T21:11:08.346Z,-4.50
2019-01-19T21:13:35.615Z,-4.50
2019-01-19T21:16:02.840Z,-4.60
2019-01-19T21:18:30.191Z,-4.60
2019-01-19T21:20:57.536Z,-4.60
2019-01-19T21:23:27.882Z,-4.60
2019-01-19T21:25:55.120Z,-4.50
2019-01-19T21:28:22.683Z,-4.50
2019-01-19T21:30:49.905Z,-4.30
2019-01-19T21:33:17.177Z,-4.40
2019-01-19T21:35:44.395Z,-4.60
2019-01-19T21:38:12.051Z,-4.80
2019-01-19T21:40:39.373Z,-4.80
2019-01-19T21:43:06.747Z,-4.90
2019-01-19T21:45:33.964Z,-4.90
2019-01-19T21:48:01.257Z,-4.90
2019-01-19T21:50:28.805Z,-4.90
2019-01-19T21:52:56.073Z,-4.90
2019-01-19T21:55:23.309Z,-4.90
2019-01-19T21:57:50.583Z,-5.00
2019-01-19T22:00:17.824Z,-5.10
2019-01-19T22:02:45.100Z,-5.20
2019-01-19T22:05:12.431Z,-5.20
2019-01-19T22:07:39.699Z,-5.20
2019-01-19T22:10:09.806Z,-5.10
2019-01-19T22:12:37.167Z,-5.10
2019-01-19T22:15:07.151Z,-5.20
2019-01-19T22:17:39.521Z,-5.30
2019-01-19T22:20:05.196Z,-5.30
2019-01-19T22:22:32.467Z,-5.30
2019-01-19T22:24:59.771Z,-5.30
2019-01-19T22:27:27.296Z,-5.20
2019-01-19T22:29:54.951Z,-5.00
2019-01-19T22:32:22.489Z,-4.90
2019-01-19T22:34:49.768Z,-4.90
2019-01-19T22:37:17.299Z,-4.90
2019-01-19T22:39:44.648Z,-4.80
2019-01-19T22:42:11.977Z,-5.00
2019-01-19T22:44:39.233Z,-5.10
2019-01-19T22:47:06.821Z,-5.10
2019-01-19T22:49:35.888Z,-5.00
2019-01-19T22:52:03.141Z,-5.00
2019-01-19T22:54:30.395Z,-5.10
2019-01-19T22:56:57.997Z,-5.10
2019-01-19T22:59:25.258Z,-5.20
2019-01-19T23:01:55.925Z,-5.20
2019-01-19T23:04:23.181Z,-5.10
2019-01-19T23:06:50.396Z,-5.10
2019-01-19T23:09:17.732Z,-5.20
2019-01-19T23:11:45.894Z,-5.20
2019-01-19T23:14:13.235Z,-5.30
2019-01-19T23:16:40.495Z,-5.30
2019-01-19T23:19:07.868Z,-5.30
2019-01-19T23:21:35.096Z,-5.30
2019-01-19T23:24:02.345Z,-5.20
2019-01-19T23:26:29.983Z,-5.10
2019-01-19T23:28:57.231Z,-5.10
2019-01-19T23:31:24.459Z,-5.10
2019-01-19T23:33:52.013Z,-5.10
2019-01-19T23:36:19.255Z,-5.20
2019-01-19T23:38:46.516Z,-5.40
2019-01-19T23:41:33.327Z,-5.50
2019-01-19T23:44:00.847Z,-5.60
2019-01-19T23:46:28.508Z,-5.60
2019-01-19T23:48:55.889Z,-5.60
2019-01-19T23:51:23.157Z,-5.60
2019-01-19T23:53:50.412Z,-5.60
2019-01-19T23:56:17.623Z,-5.60
2019-01-19T23:58:44.879Z,-5.60
